createdAt,value
2017-08-13T00:00:05.240Z,8.63
2017-08-13T00:02:33.481Z,8.83
2017-08-13T00:05:02.526Z,11.37
2017-08-13T00:07:30.797Z,7.83
2017-08-13T00:09:59.044Z,9.37
2017-08-13T00:12:27.334Z,7.17
2017-08-13T00:14:55.558Z,11.60
2017-08-13T00:17:23.892Z,8.90
2017-08-13T00:20:02.854Z,9.30
2017-08-13T00:22:32.050Z,11.40
2017-08-13T00:25:00.290Z,10.53
2017-08-13T00:27:29.414Z,11.63
2017-08-13T00:29:57.659Z,9.97
2017-08-13T00:32:25.952Z,12.37
2017-08-13T00:34:54.182Z,9.20
2017-08-13T00:37:23.209Z,9.80
2017-08-13T00:39:51.457Z,10.00
2017-08-13T00:42:19.739Z,10.57
2017-08-13T00:44:48.776Z,11.30
2017-08-13T00:47:17.044Z,12.00
2017-08-13T00:49:45.278Z,15.47
2017-08-13T00:52:14.438Z,9.03
2017-08-13T00:54:42.730Z,9.00
2017-08-13T00:57:11.283Z,11.33
2017-08-13T00:59:40.251Z,10.03
2017-08-13T01:02:08.688Z,9.50
2017-08-13T01:04:36.918Z,16.40
2017-08-13T01:07:05.182Z,10.00
2017-08-13T01:09:34.197Z,19.13
2017-08-13T01:12:02.453Z,12.73
2017-08-13T01:14:32.410Z,8.93
2017-08-13T01:17:00.666Z,11.13
2017-08-13T01:19:29.834Z,14.70
2017-08-13T01:21:58.875Z,11.30
2017-08-13T01:24:28.191Z,12.50
2017-08-13T01:26:57.275Z,17.33
2017-08-13T01:29:25.784Z,14.00
2017-08-13T01:31:54.057Z,11.53
2017-08-13T01:34:22.300Z,11.80
2017-08-13T01:36:50.562Z,12.33
2017-08-13T01:39:20.445Z,17.27
2017-08-13T01:41:48.710Z,19.60
2017-08-13T01:44:16.959Z,11.73
2017-08-13T01:46:45.242Z,16.87
2017-08-13T01:49:13.496Z,16.33
2017-08-13T01:51:42.210Z,23.33
2017-08-13T01:54:10.484Z,19.00
2017-08-13T01:56:38.734Z,16.40
2017-08-13T01:59:07.005Z,22.13
2017-08-13T02:01:35.766Z,13.17
2017-08-13T02:04:04.783Z,18.90
2017-08-13T02:06:33.781Z,19.70
2017-08-13T02:09:02.051Z,15.53
2017-08-13T02:11:31.063Z,14.80
2017-08-13T02:13:59.305Z,13.83
2017-08-13T02:16:28.315Z,13.83
2017-08-13T02:18:57.350Z,12.60
2017-08-13T02:21:25.621Z,13.63
2017-08-13T02:23:54.298Z,15.30
2017-08-13T02:26:22.553Z,23.17
2017-08-13T02:28:51.701Z,20.10
2017-08-13T02:31:19.934Z,18.47
2017-08-13T02:33:48.195Z,17.93
2017-08-13T02:36:16.430Z,17.77
2017-08-13T02:38:45.732Z,19.53
2017-08-13T02:41:13.988Z,13.90
2017-08-13T02:43:42.267Z,17.10
2017-08-13T02:46:10.559Z,15.90
2017-08-13T02:48:38.836Z,24.50
2017-08-13T02:51:07.058Z,17.80
2017-08-13T02:53:36.066Z,19.90
2017-08-13T02:56:04.349Z,19.67
2017-08-13T02:58:33.426Z,19.93
2017-08-13T03:01:02.456Z,38.13
2017-08-13T03:03:30.716Z,22.03
2017-08-13T03:05:58.985Z,29.80
2017-08-13T03:08:28.011Z,25.50
2017-08-13T03:10:56.268Z,23.67
2017-08-13T03:13:24.530Z,23.40
2017-08-13T03:15:53.529Z,27.83
2017-08-13T03:18:21.786Z,21.90
2017-08-13T03:20:50.824Z,21.70
2017-08-13T03:23:19.103Z,24.53
2017-08-13T03:25:47.369Z,28.20
2017-08-13T03:28:15.624Z,31.80
2017-08-13T03:30:44.642Z,27.37
2017-08-13T03:33:13.092Z,30.13
2017-08-13T03:35:42.130Z,31.50
2017-08-13T03:38:10.511Z,30.83
2017-08-13T03:40:38.745Z,24.07
2017-08-13T03:43:07.765Z,26.53
2017-08-13T03:45:36.031Z,25.97
2017-08-13T03:48:05.081Z,34.33
2017-08-13T03:50:33.345Z,26.57
2017-08-13T03:53:01.613Z,30.80
2017-08-13T03:55:29.877Z,30.70
2017-08-13T03:57:58.106Z,25.50
2017-08-13T04:00:27.108Z,33.53
2017-08-13T04:02:55.443Z,34.27
2017-08-13T04:05:24.702Z,38.80
2017-08-13T04:07:53.703Z,31.63
2017-08-13T04:10:22.758Z,116.07
2017-08-13T04:12:51.026Z,54.47
2017-08-13T04:15:19.291Z,54.00
2017-08-13T04:17:47.687Z,42.40
2017-08-13T04:20:15.932Z,38.77
2017-08-13T04:22:44.209Z,38.83
2017-08-13T04:25:12.772Z,33.57
2017-08-13T04:27:41.750Z,30.73
2017-08-13T04:30:10.784Z,28.40
2017-08-13T04:32:39.026Z,26.17
2017-08-13T04:35:08.069Z,25.50
2017-08-13T04:37:36.317Z,29.20
2017-08-13T04:40:04.570Z,24.70
2017-08-13T04:42:32.814Z,24.20
2017-08-13T04:45:01.090Z,24.90
2017-08-13T04:47:29.854Z,27.80
2017-08-13T04:49:59.668Z,28.20
2017-08-13T04:52:27.912Z,28.23
2017-08-13T04:54:56.908Z,29.90
2017-08-13T04:57:25.174Z,33.07
2017-08-13T04:59:54.204Z,31.80
2017-08-13T05:02:22.449Z,28.03
2017-08-13T05:04:51.494Z,33.50
2017-08-13T05:07:19.735Z,38.70
2017-08-13T05:09:48.864Z,40.30
2017-08-13T05:12:17.090Z,34.57
2017-08-13T05:14:46.709Z,44.40
2017-08-13T05:17:14.966Z,34.20
2017-08-13T05:19:43.214Z,41.03
2017-08-13T05:22:11.461Z,38.60
2017-08-13T05:24:39.717Z,67.53
2017-08-13T05:27:08.009Z,34.73
2017-08-13T05:29:37.029Z,32.40
2017-08-13T05:32:05.270Z,32.27
2017-08-13T05:34:34.294Z,36.20
2017-08-13T05:37:02.542Z,32.10
2017-08-13T05:39:30.816Z,36.33
2017-08-13T05:41:59.082Z,34.80
2017-08-13T05:44:27.325Z,28.07
2017-08-13T05:46:55.588Z,40.47
2017-08-13T05:49:23.830Z,37.50
2017-08-13T05:51:52.235Z,31.83
2017-08-13T05:54:20.499Z,38.93
2017-08-13T05:56:48.763Z,39.43
2017-08-13T05:59:17.758Z,41.03
2017-08-13T06:01:46.046Z,42.60
2017-08-13T06:04:14.298Z,40.77
2017-08-13T06:06:43.306Z,41.70
2017-08-13T06:09:11.563Z,51.63
2017-08-13T06:11:40.566Z,49.20
2017-08-13T06:14:09.615Z,52.30
2017-08-13T06:16:37.873Z,56.53
2017-08-13T06:19:06.707Z,46.97
2017-08-13T06:21:34.972Z,41.77
2017-08-13T06:24:03.225Z,43.50
2017-08-13T06:26:31.487Z,44.80
2017-08-13T06:28:59.753Z,42.30
2017-08-13T06:31:28.298Z,33.40
2017-08-13T06:33:56.571Z,29.30
2017-08-13T06:36:24.849Z,22.33
2017-08-13T06:38:53.103Z,33.03
2017-08-13T06:41:21.355Z,27.50
2017-08-13T06:43:49.658Z,45.17
2017-08-13T06:46:17.915Z,36.73
2017-08-13T06:48:46.401Z,31.87
2017-08-13T06:51:14.679Z,29.30
2017-08-13T06:53:42.923Z,31.60
2017-08-13T06:56:11.954Z,33.10
2017-08-13T06:58:40.210Z,24.60
2017-08-13T07:01:08.466Z,32.23
2017-08-13T07:03:37.491Z,20.87
2017-08-13T07:06:05.762Z,20.00
2017-08-13T07:08:34.002Z,23.93
2017-08-13T07:11:03.037Z,22.43
2017-08-13T07:13:31.289Z,27.63
2017-08-13T07:16:00.350Z,24.00
2017-08-13T07:18:28.599Z,29.70
2017-08-13T07:20:57.048Z,24.90
2017-08-13T07:23:26.059Z,25.07
2017-08-13T07:25:54.330Z,20.23
2017-08-13T07:28:22.590Z,24.27
2017-08-13T07:30:51.853Z,21.30
2017-08-13T07:33:20.110Z,25.40
2017-08-13T07:35:48.351Z,24.90
2017-08-13T07:38:17.388Z,21.13
2017-08-13T07:40:45.631Z,21.20
2017-08-13T07:43:14.241Z,20.40
2017-08-13T07:45:42.482Z,21.43
2017-08-13T07:48:11.499Z,22.50
2017-08-13T07:50:39.817Z,20.17
2017-08-13T07:53:08.049Z,17.07
2017-08-13T07:55:36.303Z,21.23
2017-08-13T07:58:05.346Z,20.37
2017-08-13T08:00:33.591Z,22.27
2017-08-13T08:03:01.877Z,16.43
2017-08-13T08:05:30.281Z,15.40
2017-08-13T08:07:58.547Z,21.50
2017-08-13T08:10:26.871Z,27.30
2017-08-13T08:12:55.098Z,22.23
2017-08-13T08:15:23.363Z,16.33
2017-08-13T08:17:51.631Z,19.33
2017-08-13T08:20:19.887Z,18.50
2017-08-13T08:22:48.920Z,20.13
2017-08-13T08:25:17.196Z,13.07
2017-08-13T08:27:45.813Z,16.37
2017-08-13T08:30:14.065Z,15.00
2017-08-13T08:32:42.336Z,17.10
2017-08-13T08:35:10.577Z,14.73
2017-08-13T08:37:39.600Z,16.13
2017-08-13T08:40:07.916Z,18.87
2017-08-13T08:42:36.213Z,17.60
2017-08-13T08:45:04.499Z,23.13
2017-08-13T08:47:32.753Z,14.57
2017-08-13T08:50:01.206Z,19.77
2017-08-13T08:52:29.467Z,12.90
2017-08-13T08:54:57.735Z,16.63
2017-08-13T08:57:25.998Z,13.97
2017-08-13T08:59:55.049Z,17.93
2017-08-13T09:02:23.333Z,22.90
2017-08-13T09:04:51.638Z,13.60
2017-08-13T09:07:19.882Z,13.50
2017-08-13T09:09:48.313Z,20.60
2017-08-13T09:12:16.539Z,21.83
2017-08-13T09:14:44.793Z,12.93
2017-08-13T09:17:13.197Z,14.40
2017-08-13T09:19:41.479Z,7.90
2017-08-13T09:22:09.801Z,11.30
2017-08-13T09:24:38.854Z,7.47
2017-08-13T09:27:07.076Z,8.47
2017-08-13T09:29:36.137Z,6.17
2017-08-13T09:32:04.486Z,6.30
2017-08-13T09:34:32.722Z,5.53
2017-08-13T09:37:01.786Z,5.57
2017-08-13T09:39:30.054Z,4.83
2017-08-13T09:41:58.300Z,8.80
2017-08-13T09:44:26.601Z,6.43
2017-08-13T09:46:54.877Z,5.93
2017-08-13T09:49:23.157Z,10.60
2017-08-13T09:51:51.415Z,5.53
2017-08-13T09:54:19.686Z,6.57
2017-08-13T09:56:48.710Z,9.03
2017-08-13T09:59:17.078Z,7.07
2017-08-13T10:01:45.316Z,7.13
2017-08-13T10:04:14.336Z,6.30
2017-08-13T10:06:42.593Z,11.93
2017-08-13T10:09:10.868Z,4.33
2017-08-13T10:11:39.149Z,13.10
2017-08-13T10:14:08.165Z,7.30
2017-08-13T10:16:36.415Z,4.30
2017-08-13T10:19:05.442Z,7.03
2017-08-13T10:21:33.745Z,5.40
2017-08-13T10:24:01.961Z,4.70
2017-08-13T10:26:31.696Z,5.17
2017-08-13T10:29:01.306Z,5.70
2017-08-13T10:31:29.736Z,6.53
2017-08-13T10:33:58.026Z,8.43
2017-08-13T10:36:26.278Z,4.47
2017-08-13T10:38:54.509Z,5.57
2017-08-13T10:41:22.779Z,4.87
2017-08-13T10:43:51.052Z,6.10
2017-08-13T10:46:19.319Z,5.73
2017-08-13T10:48:48.569Z,8.73
2017-08-13T10:51:17.650Z,3.60
2017-08-13T10:53:45.902Z,4.23
2017-08-13T10:56:15.784Z,7.03
2017-08-13T10:58:44.053Z,3.77
2017-08-13T11:01:12.329Z,4.27
2017-08-13T11:03:40.538Z,8.07
2017-08-13T11:06:09.580Z,4.03
2017-08-13T11:08:37.856Z,5.00
2017-08-13T11:11:06.116Z,5.17
2017-08-13T11:13:34.389Z,7.63
2017-08-13T11:16:02.624Z,5.43
2017-08-13T11:18:30.882Z,3.60
2017-08-13T11:20:59.136Z,4.63
2017-08-13T11:23:27.542Z,5.90
2017-08-13T11:25:55.802Z,5.63
2017-08-13T11:28:24.070Z,6.60
2017-08-13T11:30:52.341Z,3.60
2017-08-13T11:33:20.601Z,3.90
2017-08-13T11:35:48.829Z,9.30
2017-08-13T11:38:17.091Z,4.80
2017-08-13T11:40:45.324Z,3.23
2017-08-13T11:43:13.585Z,3.60
2017-08-13T11:45:41.870Z,3.70
2017-08-13T11:48:10.861Z,3.03
2017-08-13T11:50:39.922Z,4.50
2017-08-13T11:53:08.226Z,3.90
2017-08-13T11:55:36.486Z,3.30
2017-08-13T11:58:04.760Z,3.97
2017-08-13T12:00:33.003Z,5.80
2017-08-13T12:03:01.307Z,7.80
2017-08-13T12:05:29.594Z,6.73
2017-08-13T12:07:57.826Z,7.97
2017-08-13T12:10:26.826Z,6.60
2017-08-13T12:12:55.125Z,5.27
2017-08-13T12:15:23.399Z,9.23
2017-08-13T12:17:51.657Z,5.67
2017-08-13T12:20:19.890Z,5.50
2017-08-13T12:22:48.133Z,6.50
2017-08-13T12:25:16.392Z,3.47
2017-08-13T12:27:44.659Z,4.40
2017-08-13T12:30:12.925Z,4.87
2017-08-13T12:32:41.202Z,6.63
2017-08-13T12:35:10.198Z,5.03
2017-08-13T12:37:38.447Z,5.23
2017-08-13T12:40:07.500Z,6.03
2017-08-13T12:42:35.773Z,6.93
2017-08-13T12:45:04.026Z,9.17
2017-08-13T12:47:32.277Z,18.03
2017-08-13T12:50:00.547Z,13.97
2017-08-13T12:52:28.879Z,6.47
2017-08-13T12:54:57.124Z,6.60
2017-08-13T12:57:26.157Z,8.37
2017-08-13T12:59:54.416Z,5.80
2017-08-13T13:02:22.730Z,8.60
2017-08-13T13:04:50.976Z,8.53
2017-08-13T13:07:19.471Z,7.40
2017-08-13T13:09:48.638Z,14.00
2017-08-13T13:12:17.650Z,8.53
2017-08-13T13:14:47.486Z,5.67
2017-08-13T13:17:15.765Z,6.70
2017-08-13T13:19:44.029Z,7.07
2017-08-13T13:22:12.275Z,7.73
2017-08-13T13:24:40.585Z,8.53
2017-08-13T13:27:09.309Z,7.87
2017-08-13T13:29:37.640Z,5.07
2017-08-13T13:32:06.687Z,14.63
2017-08-13T13:34:34.937Z,12.93
2017-08-13T13:37:03.214Z,8.00
2017-08-13T13:39:31.459Z,8.57
2017-08-13T13:42:00.049Z,9.67
2017-08-13T13:44:29.052Z,8.50
2017-08-13T13:46:57.298Z,6.80
2017-08-13T13:49:25.543Z,9.80
2017-08-13T13:51:53.814Z,7.07
2017-08-13T13:54:22.091Z,12.63
2017-08-13T13:56:50.365Z,16.00
2017-08-13T13:59:18.621Z,14.43
2017-08-13T14:01:46.918Z,12.03
2017-08-13T14:04:15.175Z,10.93
2017-08-13T14:06:43.426Z,12.60
2017-08-13T14:09:11.673Z,13.70
2017-08-13T14:11:40.846Z,16.60
2017-08-13T14:14:09.073Z,14.23
2017-08-13T14:16:37.379Z,21.47
2017-08-13T14:19:05.997Z,15.77
2017-08-13T14:21:34.273Z,17.03
2017-08-13T14:24:02.533Z,15.53
2017-08-13T14:26:30.818Z,15.43
2017-08-13T14:28:59.096Z,18.17
2017-08-13T14:31:27.355Z,15.33
2017-08-13T14:33:55.641Z,15.20
2017-08-13T14:36:23.932Z,15.17
2017-08-13T14:38:52.225Z,12.97
2017-08-13T14:41:20.553Z,16.40
2017-08-13T14:43:48.818Z,14.13
2017-08-13T14:46:17.094Z,16.27
2017-08-13T14:48:45.358Z,14.83
2017-08-13T14:51:13.780Z,15.00
2017-08-13T14:53:42.106Z,15.77
2017-08-13T14:56:11.220Z,12.20
2017-08-13T14:58:39.478Z,17.93
2017-08-13T15:01:08.512Z,13.07
2017-08-13T15:03:36.825Z,15.37
2017-08-13T15:06:05.894Z,14.80
2017-08-13T15:08:34.163Z,13.80
2017-08-13T15:11:02.411Z,14.60
2017-08-13T15:13:30.698Z,21.30
2017-08-13T15:15:58.953Z,13.53
2017-08-13T15:18:28.046Z,17.30
2017-08-13T15:20:57.068Z,13.67
2017-08-13T15:23:25.335Z,14.73
2017-08-13T15:25:53.629Z,20.70
2017-08-13T15:28:21.902Z,13.53
2017-08-13T15:30:50.919Z,13.17
2017-08-13T15:33:19.541Z,13.80
2017-08-13T15:35:47.791Z,19.33
2017-08-13T15:38:16.902Z,13.00
2017-08-13T15:40:45.174Z,15.40
2017-08-13T15:43:13.452Z,19.33
2017-08-13T15:45:41.687Z,16.90
2017-08-13T15:48:09.979Z,16.23
2017-08-13T15:50:38.297Z,14.23
2017-08-13T15:53:06.561Z,17.53
2017-08-13T15:55:34.839Z,10.47
2017-08-13T15:58:03.115Z,9.27
2017-08-13T16:00:31.389Z,12.70
2017-08-13T16:02:59.915Z,10.57
2017-08-13T16:05:28.257Z,20.27
2017-08-13T16:07:56.570Z,14.67
2017-08-13T16:10:24.836Z,9.90
2017-08-13T16:12:53.096Z,12.33
2017-08-13T16:15:21.371Z,10.50
2017-08-13T16:17:49.647Z,15.67
2017-08-13T16:20:18.786Z,12.13
2017-08-13T16:22:47.779Z,9.87
2017-08-13T16:25:16.868Z,10.97
2017-08-13T16:27:45.237Z,16.23
2017-08-13T16:30:13.491Z,14.80
2017-08-13T16:32:41.769Z,13.73
2017-08-13T16:35:10.392Z,12.07
2017-08-13T16:37:39.415Z,9.97
2017-08-13T16:40:07.688Z,12.20
2017-08-13T16:42:35.946Z,11.97
2017-08-13T16:45:04.231Z,13.17
2017-08-13T16:47:32.490Z,8.67
2017-08-13T16:50:01.536Z,10.03
2017-08-13T16:52:29.816Z,10.37
2017-08-13T16:54:58.178Z,11.10
2017-08-13T16:57:26.422Z,8.47
2017-08-13T16:59:55.460Z,13.57
2017-08-13T17:02:23.726Z,10.43
2017-08-13T17:04:53.959Z,6.97
2017-08-13T17:07:22.319Z,7.23
2017-08-13T17:09:50.592Z,8.80
2017-08-13T17:12:18.893Z,8.33
2017-08-13T17:14:47.201Z,7.10
2017-08-13T17:17:16.551Z,7.10
2017-08-13T17:19:44.838Z,7.57
2017-08-13T17:22:13.072Z,10.43
2017-08-13T17:24:42.117Z,6.63
2017-08-13T17:27:10.450Z,7.87
2017-08-13T17:29:38.681Z,6.43
2017-08-13T17:32:06.933Z,12.23
2017-08-13T17:34:35.851Z,8.90
2017-08-13T17:37:04.149Z,8.80
2017-08-13T17:39:33.176Z,7.93
2017-08-13T17:42:02.229Z,5.13
2017-08-13T17:44:30.523Z,7.93
2017-08-13T17:47:00.433Z,6.80
2017-08-13T17:49:28.739Z,7.80
2017-08-13T17:51:57.782Z,6.30
2017-08-13T17:54:26.058Z,11.97
2017-08-13T17:56:54.392Z,5.80
2017-08-13T17:59:23.426Z,6.50
2017-08-13T18:01:51.702Z,12.90
2017-08-13T18:04:19.996Z,10.40
2017-08-13T18:06:48.297Z,11.87
2017-08-13T18:09:16.567Z,13.90
2017-08-13T18:11:45.747Z,6.20
2017-08-13T18:14:14.006Z,6.13
2017-08-13T18:16:42.243Z,7.50
2017-08-13T18:19:11.277Z,8.30
2017-08-13T18:21:40.359Z,10.87
2017-08-13T18:24:09.375Z,7.80
2017-08-13T18:26:37.643Z,8.10
2017-08-13T18:29:05.882Z,8.70
2017-08-13T18:31:34.925Z,14.83
2017-08-13T18:34:03.195Z,7.10
2017-08-13T18:36:32.759Z,11.90
2017-08-13T18:39:01.012Z,6.10
2017-08-13T18:41:30.065Z,9.47
2017-08-13T18:43:58.395Z,7.73
2017-08-13T18:46:26.957Z,8.57
2017-08-13T18:48:55.273Z,16.23
2017-08-13T18:51:24.403Z,11.13
2017-08-13T18:53:52.730Z,8.80
2017-08-13T18:56:21.082Z,6.50
2017-08-13T18:58:49.622Z,6.23
2017-08-13T19:01:19.063Z,5.70
2017-08-13T19:03:47.641Z,9.67
2017-08-13T19:06:17.584Z,10.00
2017-08-13T19:08:47.169Z,5.90
2017-08-13T19:11:16.246Z,13.03
2017-08-13T19:13:45.263Z,9.10
2017-08-13T19:16:16.258Z,16.40
2017-08-13T19:18:46.830Z,7.20
2017-08-13T19:21:15.735Z,8.43
2017-08-13T19:23:45.025Z,9.50
2017-08-13T19:26:13.811Z,7.60
2017-08-13T19:28:43.028Z,9.73
2017-08-13T19:31:11.799Z,15.17
2017-08-13T19:33:40.613Z,12.47
2017-08-13T19:36:10.462Z,8.43
2017-08-13T19:38:39.200Z,7.73
2017-08-13T19:41:07.983Z,10.20
2017-08-13T19:43:36.774Z,8.23
2017-08-13T19:46:05.565Z,11.20
2017-08-13T19:48:34.456Z,13.00
2017-08-13T19:51:03.269Z,8.30
2017-08-13T19:53:32.133Z,9.93
2017-08-13T19:56:01.024Z,7.93
2017-08-13T19:58:29.816Z,8.67
2017-08-13T20:00:58.611Z,8.43
2017-08-13T20:03:27.402Z,8.67
2017-08-13T20:05:56.698Z,10.73
2017-08-13T20:08:25.489Z,20.47
2017-08-13T20:10:54.990Z,9.93
2017-08-13T20:13:23.899Z,14.43
2017-08-13T20:15:53.084Z,11.30
2017-08-13T20:18:21.978Z,13.43
2017-08-13T20:20:50.357Z,11.60
2017-08-13T20:23:18.666Z,10.83
2017-08-13T20:25:46.986Z,15.10
2017-08-13T20:28:15.339Z,8.30
2017-08-13T20:30:43.661Z,10.20
2017-08-13T20:33:11.956Z,9.00
2017-08-13T20:35:40.239Z,12.23
2017-08-13T20:38:08.520Z,11.50
2017-08-13T20:40:36.847Z,8.80
2017-08-13T20:43:05.409Z,8.77
2017-08-13T20:45:34.569Z,10.37
2017-08-13T20:48:03.662Z,9.30
2017-08-13T20:50:32.092Z,10.50
2017-08-13T20:53:00.640Z,9.77
2017-08-13T20:55:28.954Z,17.10
2017-08-13T20:57:57.994Z,13.70
2017-08-13T21:00:26.282Z,17.73
2017-08-13T21:02:54.597Z,13.50
2017-08-13T21:05:23.691Z,9.90
2017-08-13T21:07:51.941Z,11.70
2017-08-13T21:10:20.849Z,13.30
2017-08-13T21:12:49.120Z,13.47
2017-08-13T21:15:18.359Z,12.77
2017-08-13T21:17:46.601Z,14.50
2017-08-13T21:20:15.015Z,13.23
2017-08-13T21:22:44.044Z,8.70
2017-08-13T21:25:12.383Z,15.07
2017-08-13T21:27:41.536Z,12.67
2017-08-13T21:30:09.818Z,19.27
2017-08-13T21:32:38.104Z,15.73
2017-08-13T21:35:07.354Z,21.23
2017-08-13T21:37:35.663Z,14.63
2017-08-13T21:40:04.026Z,14.20
2017-08-13T21:42:33.016Z,12.40
2017-08-13T21:45:01.267Z,12.03
2017-08-13T21:47:30.316Z,14.30
2017-08-13T21:49:58.574Z,14.23
2017-08-13T21:52:26.814Z,15.90
2017-08-13T21:54:55.847Z,14.83
2017-08-13T21:57:24.135Z,8.80
2017-08-13T21:59:52.370Z,10.43
2017-08-13T22:02:21.425Z,10.63
2017-08-13T22:04:49.733Z,11.17
2017-08-13T22:07:17.982Z,12.10
2017-08-13T22:09:46.237Z,20.20
2017-08-13T22:12:14.576Z,11.13
2017-08-13T22:14:43.578Z,11.73
2017-08-13T22:17:11.852Z,13.70
2017-08-13T22:19:41.136Z,14.00
2017-08-13T22:22:10.585Z,12.87
2017-08-13T22:24:39.077Z,11.57
2017-08-13T22:27:07.339Z,13.87
2017-08-13T22:29:35.729Z,11.00
2017-08-13T22:32:03.975Z,11.00
2017-08-13T22:34:33.026Z,9.93
2017-08-13T22:37:01.374Z,10.00
2017-08-13T22:39:29.617Z,10.87
2017-08-13T22:41:58.632Z,12.73
2017-08-13T22:44:26.925Z,11.60
2017-08-13T22:46:55.184Z,12.97
2017-08-13T22:49:24.217Z,10.53
2017-08-13T22:51:52.476Z,15.73
2017-08-13T22:54:20.952Z,13.63
2017-08-13T22:56:49.229Z,18.00
2017-08-13T22:59:17.485Z,13.10
2017-08-13T23:01:45.746Z,13.20
2017-08-13T23:04:14.051Z,11.93
2017-08-13T23:06:43.082Z,16.97
2017-08-13T23:09:11.334Z,16.83
2017-08-13T23:11:39.598Z,11.80
2017-08-13T23:14:07.910Z,16.87
2017-08-13T23:16:37.007Z,15.07
2017-08-13T23:19:05.251Z,12.03
2017-08-13T23:21:33.544Z,11.67
2017-08-13T23:24:01.927Z,16.60
2017-08-13T23:26:30.152Z,14.37
2017-08-13T23:28:59.171Z,10.30
2017-08-13T23:31:27.417Z,18.40
2017-08-13T23:33:56.470Z,13.10
2017-08-13T23:36:24.777Z,13.13
2017-08-13T23:38:53.005Z,12.80
2017-08-13T23:41:21.279Z,17.70
2017-08-13T23:43:49.646Z,23.77
2017-08-13T23:46:17.900Z,17.70
2017-08-13T23:48:46.163Z,21.00
2017-08-13T23:51:14.445Z,26.40
2017-08-13T23:53:42.745Z,23.40
2017-08-13T23:56:11.773Z,18.53
2017-08-13T23:58:40.376Z,12.30
